createdAt,value
2023-01-13T00:05:19.178Z,38.90
2023-01-13T00:11:30.292Z,39.50
2023-01-13T00:17:39.955Z,39.10
2023-01-13T00:23:47.663Z,39.50
2023-01-13T00:30:00.674Z,39.90
2023-01-13T00:36:14.382Z,40.20
2023-01-13T00:42:44.280Z,40.10
2023-01-13T00:48:54.910Z,39.30
2023-01-13T00:55:05.619Z,39.60
2023-01-13T01:01:17.337Z,39.90
2023-01-13T01:07:27.087Z,40.00
2023-01-13T01:13:37.302Z,41.30
2023-01-13T01:19:46.528Z,41.20
2023-01-13T01:25:59.102Z,40.70
2023-01-13T01:32:13.533Z,40.50
2023-01-13T01:38:26.406Z,40.50
2023-01-13T01:44:57.819Z,40.50
2023-01-13T01:51:06.527Z,40.50
2023-01-13T01:57:20.726Z,40.60
2023-01-13T02:03:34.098Z,40.60
2023-01-13T02:09:48.530Z,40.60
2023-01-13T02:16:08.310Z,40.60
2023-01-13T02:22:35.999Z,40.40
2023-01-13T02:29:41.347Z,40.70
2023-01-13T02:35:54.642Z,40.50
2023-01-13T02:42:23.916Z,40.50
2023-01-13T02:48:36.252Z,40.40
2023-01-13T02:54:49.653Z,40.40
2023-01-13T03:01:01.197Z,40.40
2023-01-13T03:07:18.087Z,40.20
2023-01-13T03:14:00.272Z,40.30
2023-01-13T03:20:17.804Z,40.20
2023-01-13T03:26:31.253Z,40.40
2023-01-13T03:32:44.968Z,40.30
2023-01-13T03:38:56.679Z,40.20
2023-01-13T03:45:12.076Z,40.20
2023-01-13T03:51:22.474Z,40.10
2023-01-13T03:57:33.444Z,40.30
2023-01-13T04:03:46.726Z,40.20
2023-01-13T04:10:00.262Z,40.20
2023-01-13T04:16:14.208Z,40.30
2023-01-13T04:22:25.341Z,40.20
2023-01-13T04:28:35.588Z,40.30
2023-01-13T04:34:47.280Z,40.30
2023-01-13T04:40:57.804Z,40.30
2023-01-13T04:47:09.866Z,40.30
2023-01-13T04:53:20.219Z,40.40
2023-01-13T04:59:27.725Z,40.40
2023-01-13T05:05:40.552Z,40.40
2023-01-13T05:12:06.627Z,40.50
2023-01-13T05:18:14.603Z,40.40
2023-01-13T05:24:43.799Z,40.60
2023-01-13T05:30:54.284Z,40.90
2023-01-13T05:37:10.028Z,41.10
2023-01-13T05:43:24.408Z,41.30
2023-01-13T05:49:37.887Z,41.50
2023-01-13T05:55:52.972Z,41.50
2023-01-13T06:02:00.897Z,41.50
2023-01-13T06:08:14.401Z,41.40
2023-01-13T06:14:28.426Z,41.40
2023-01-13T06:20:40.053Z,41.10
2023-01-13T06:26:49.161Z,41.10
2023-01-13T06:33:00.957Z,40.80
2023-01-13T06:39:12.012Z,40.50
2023-01-13T06:45:21.992Z,39.70
2023-01-13T06:51:32.253Z,39.60
2023-01-13T06:57:50.384Z,39.90
2023-01-13T07:04:03.505Z,40.10
2023-01-13T07:10:21.899Z,40.10
2023-01-13T07:16:33.054Z,40.00
2023-01-13T07:22:41.366Z,40.00
2023-01-13T07:28:48.868Z,39.50
2023-01-13T07:35:00.687Z,39.60
2023-01-13T07:41:28.431Z,39.80
2023-01-13T07:47:39.795Z,39.70
2023-01-13T07:53:51.915Z,39.90
2023-01-13T08:00:00.994Z,39.30
2023-01-13T08:06:11.126Z,39.30
2023-01-13T08:12:36.439Z,39.70
2023-01-13T08:18:47.522Z,39.80
2023-01-13T08:25:02.017Z,39.80
2023-01-13T08:31:12.209Z,39.60
2023-01-13T08:37:25.190Z,39.20
2023-01-13T08:43:34.484Z,39.40
2023-01-13T08:49:47.965Z,39.30
2023-01-13T08:55:57.394Z,39.70
2023-01-13T09:02:08.813Z,39.40
2023-01-13T09:08:23.439Z,39.10
2023-01-13T09:14:36.622Z,39.20
2023-01-13T09:20:45.893Z,39.50
2023-01-13T09:26:55.628Z,39.60
2023-01-13T09:39:28.557Z,39.00
2023-01-13T09:45:42.627Z,39.10
2023-01-13T09:51:55.576Z,39.40
2023-01-13T09:58:07.024Z,39.60
2023-01-13T10:04:17.825Z,39.30
2023-01-13T10:10:30.110Z,39.00
2023-01-13T10:16:43.489Z,39.00
2023-01-13T10:22:58.019Z,39.30
2023-01-13T10:29:09.571Z,39.30
2023-01-13T10:35:21.979Z,39.40
2023-01-13T10:41:33.886Z,39.60
2023-01-13T10:47:41.724Z,39.00
2023-01-13T10:53:56.198Z,39.60
2023-01-13T11:00:06.347Z,39.30
2023-01-13T11:06:17.270Z,39.20
2023-01-13T11:12:55.837Z,39.00
2023-01-13T11:19:10.112Z,39.10
2023-01-13T11:25:23.282Z,39.40
2023-01-13T11:31:39.490Z,39.10
2023-01-13T11:37:54.355Z,38.80
2023-01-13T11:44:10.363Z,38.90
2023-01-13T11:50:21.204Z,39.20
2023-01-13T11:56:41.834Z,38.90
2023-01-13T12:02:58.726Z,39.00
2023-01-13T12:09:24.640Z,38.80
2023-01-13T12:15:56.405Z,39.00
2023-01-13T12:22:13.676Z,39.10
2023-01-13T12:28:24.094Z,38.90
2023-01-13T12:34:43.594Z,38.80
2023-01-13T12:40:56.875Z,38.70
2023-01-13T12:47:08.273Z,38.60
2023-01-13T12:53:36.823Z,38.40
2023-01-13T12:59:52.280Z,38.40
2023-01-13T13:06:11.080Z,38.10
2023-01-13T13:12:55.459Z,38.00
2023-01-13T13:19:32.059Z,37.80
2023-01-13T13:25:41.645Z,38.20
2023-01-13T13:32:32.604Z,38.00
2023-01-13T13:39:20.639Z,37.90
2023-01-13T13:45:46.870Z,37.40
2023-01-13T13:51:58.723Z,37.70
2023-01-13T13:58:06.924Z,39.10
2023-01-13T14:04:20.775Z,38.60
2023-01-13T14:10:32.579Z,38.70
2023-01-13T14:16:43.725Z,37.70
2023-01-13T14:22:57.605Z,38.00
2023-01-13T14:29:11.676Z,38.40
2023-01-13T14:35:20.890Z,39.10
2023-01-13T14:41:32.391Z,39.00
2023-01-13T14:47:40.310Z,38.80
2023-01-13T14:53:50.144Z,37.80
2023-01-13T15:00:27.333Z,38.10
2023-01-13T15:06:38.460Z,38.20
2023-01-13T15:12:50.636Z,38.50
2023-01-13T15:19:05.759Z,38.50
2023-01-13T15:25:17.549Z,39.00
2023-01-13T15:31:29.979Z,38.70
2023-01-13T15:37:44.595Z,38.10
2023-01-13T15:44:14.177Z,37.80
2023-01-13T15:50:25.845Z,38.00
2023-01-13T15:56:41.014Z,38.00
2023-01-13T16:02:53.160Z,38.10
2023-01-13T16:09:05.841Z,38.20
2023-01-13T16:15:21.715Z,38.00
2023-01-13T16:21:33.817Z,38.00
2023-01-13T16:27:43.870Z,36.20
2023-01-13T16:33:53.889Z,36.90
2023-01-13T16:40:08.160Z,36.80
2023-01-13T16:46:24.671Z,36.50
2023-01-13T16:52:35.553Z,36.40
2023-01-13T16:58:51.375Z,36.40
2023-01-13T17:05:03.079Z,36.30
2023-01-13T17:17:33.645Z,35.40
2023-01-13T17:23:43.183Z,35.70
2023-01-13T17:29:57.118Z,36.10
2023-01-13T17:36:10.049Z,36.40
2023-01-13T17:42:20.096Z,35.70
2023-01-13T17:48:30.618Z,35.80
2023-01-13T17:54:43.717Z,35.90
2023-01-13T18:00:55.784Z,36.30
2023-01-13T18:07:09.740Z,36.10
2023-01-13T18:13:20.604Z,35.70
2023-01-13T18:19:47.615Z,35.70
2023-01-13T18:26:17.018Z,36.40
2023-01-13T18:32:32.455Z,36.40
2023-01-13T18:38:43.013Z,36.00
2023-01-13T18:44:53.272Z,35.70
2023-01-13T18:51:02.657Z,35.90
2023-01-13T18:57:14.899Z,36.00
2023-01-13T19:03:30.588Z,36.50
2023-01-13T19:09:42.931Z,36.20
2023-01-13T19:15:55.255Z,35.70
2023-01-13T19:22:04.615Z,35.80
2023-01-13T19:28:14.303Z,36.20
2023-01-13T19:34:25.978Z,36.30
2023-01-13T19:40:35.293Z,36.20
2023-01-13T19:46:48.335Z,36.20
2023-01-13T19:53:04.562Z,35.70
2023-01-13T19:59:20.684Z,36.10
2023-01-13T20:05:33.775Z,36.20
2023-01-13T20:11:44.418Z,36.00
2023-01-13T20:17:55.867Z,35.50
2023-01-13T20:24:13.157Z,35.60
2023-01-13T20:30:27.363Z,35.60
2023-01-13T20:36:41.461Z,35.90
2023-01-13T20:42:53.456Z,36.00
2023-01-13T20:49:06.540Z,36.40
2023-01-13T20:55:20.130Z,35.40
2023-01-13T21:01:32.962Z,35.50
2023-01-13T21:07:46.890Z,36.20
2023-01-13T21:14:14.338Z,36.00
2023-01-13T21:20:24.485Z,35.50
2023-01-13T21:26:35.312Z,35.50
2023-01-13T21:32:45.138Z,35.90
2023-01-13T21:39:02.089Z,35.90
2023-01-13T21:45:29.806Z,35.40
2023-01-13T21:51:43.886Z,35.40
2023-01-13T21:57:54.305Z,35.50
2023-01-13T22:04:22.413Z,35.70
2023-01-13T22:10:34.940Z,35.80
2023-01-13T22:16:45.403Z,35.70
2023-01-13T22:22:54.755Z,35.30
2023-01-13T22:29:04.438Z,35.40
2023-01-13T22:35:19.771Z,35.40
2023-01-13T22:41:30.458Z,36.30
2023-01-13T22:47:50.739Z,36.30
2023-01-13T22:54:05.068Z,35.40
2023-01-13T23:00:18.524Z,36.00
2023-01-13T23:06:33.302Z,36.00
2023-01-13T23:12:44.179Z,36.90
2023-01-13T23:18:54.699Z,35.70
2023-01-13T23:25:06.739Z,36.10
2023-01-13T23:31:20.060Z,36.40
2023-01-13T23:37:31.316Z,36.80
2023-01-13T23:43:46.910Z,36.50
2023-01-13T23:49:54.692Z,36.10
2023-01-13T23:56:07.992Z,35.40
